sensor_id;sensor_type;location;lat;lon;timestamp;pressure;altitude;pressure_sealevel;temperature;humidity
25722;BME280;13578;53.450;15.496;2023-07-20T00:01:49;99212.84;;;13.49;100.00
25722;BME280;13578;53.450;15.496;2023-07-20T00:04:49;99205.97;;;13.45;100.00
25722;BME280;13578;53.450;15.496;2023-07-20T00:07:50;99201.66;;;13.42;100.00
25722;BME280;13578;53.450;15.496;2023-07-20T00:10:52;99199.38;;;13.38;100.00
25722;BME280;13578;53.450;15.496;2023-07-20T00:13:53;99199.88;;;13.33;100.00
25722;BME280;13578;53.450;15.496;2023-07-20T00:16:55;99204.19;;;13.27;100.00
25722;BME280;13578;53.450;15.496;2023-07-20T00:19:56;99205.06;;;13.28;100.00
25722;BME280;13578;53.450;15.496;2023-07-20T00:22:57;99201.25;;;13.21;100.00
25722;BME280;13578;53.450;15.496;2023-07-20T00:25:58;99200.38;;;13.12;100.00
25722;BME280;13578;53.450;15.496;2023-07-20T00:28:58;99199.53;;;13.11;100.00
25722;BME280;13578;53.450;15.496;2023-07-20T00:31:59;99200.88;;;13.07;100.00
25722;BME280;13578;53.450;15.496;2023-07-20T00:35:00;99200.47;;;12.85;100.00
25722;BME280;13578;53.450;15.496;2023-07-20T00:38:00;99210.66;;;12.93;100.00
25722;BME280;13578;53.450;15.496;2023-07-20T00:41:01;99202.72;;;12.90;100.00
25722;BME280;13578;53.450;15.496;2023-07-20T00:44:01;99210.84;;;12.92;100.00
25722;BME280;13578;53.450;15.496;2023-07-20T00:47:02;99210.84;;;12.92;100.00
25722;BME280;13578;53.450;15.496;2023-07-20T00:50:03;99207.72;;;12.86;100.00
25722;BME280;13578;53.450;15.496;2023-07-20T00:53:05;99202.91;;;12.89;100.00
25722;BME280;13578;53.450;15.496;2023-07-20T00:56:06;99204.63;;;12.90;100.00
25722;BME280;13578;53.450;15.496;2023-07-20T00:59:09;99204.28;;;12.84;100.00
25722;BME280;13578;53.450;15.496;2023-07-20T01:02:10;99195.66;;;12.79;100.00
25722;BME280;13578;53.450;15.496;2023-07-20T01:05:11;99199.28;;;12.80;100.00
25722;BME280;13578;53.450;15.496;2023-07-20T01:08:33;99183.25;;;12.75;100.00
25722;BME280;13578;53.450;15.496;2023-07-20T01:12:13;99192.88;;;12.79;100.00
25722;BME280;13578;53.450;15.496;2023-07-20T01:15:19;99196.03;;;12.84;100.00
25722;BME280;13578;53.450;15.496;2023-07-20T01:18:19;99198.91;;;12.75;100.00
25722;BME280;13578;53.450;15.496;2023-07-20T01:21:39;99196.16;;;12.66;100.00
25722;BME280;13578;53.450;15.496;2023-07-20T01:31:41;99195.94;;;12.60;100.00
25722;BME280;13578;53.450;15.496;2023-07-20T01:34:44;99190.72;;;12.48;100.00
25722;BME280;13578;53.450;15.496;2023-07-20T01:37:46;99188.34;;;12.53;100.00
25722;BME280;13578;53.450;15.496;2023-07-20T01:40:48;99187.84;;;12.58;100.00
25722;BME280;13578;53.450;15.496;2023-07-20T01:43:49;99191.66;;;12.65;100.00
25722;BME280;13578;53.450;15.496;2023-07-20T01:46:50;99181.72;;;12.73;100.00
25722;BME280;13578;53.450;15.496;2023-07-20T01:49:50;99182.06;;;12.78;100.00
25722;BME280;13578;53.450;15.496;2023-07-20T01:52:51;99173.47;;;12.81;100.00
25722;BME280;13578;53.450;15.496;2023-07-20T01:55:54;99160.53;;;12.73;100.00
25722;BME280;13578;53.450;15.496;2023-07-20T01:58:55;99166.91;;;12.74;100.00
25722;BME280;13578;53.450;15.496;2023-07-20T02:01:56;99162.75;;;12.69;100.00
25722;BME280;13578;53.450;15.496;2023-07-20T02:04:56;99160.72;;;12.71;100.00
25722;BME280;13578;53.450;15.496;2023-07-20T02:07:57;99157.06;;;12.71;100.00
25722;BME280;13578;53.450;15.496;2023-07-20T02:10:58;99160.34;;;12.66;100.00
25722;BME280;13578;53.450;15.496;2023-07-20T02:13:58;99167.41;;;12.69;100.00
25722;BME280;13578;53.450;15.496;2023-07-20T02:16:59;99166.75;;;12.75;100.00
25722;BME280;13578;53.450;15.496;2023-07-20T02:20:00;99165.34;;;12.79;100.00
25722;BME280;13578;53.450;15.496;2023-07-20T02:23:01;99160.06;;;12.86;100.00
25722;BME280;13578;53.450;15.496;2023-07-20T02:26:01;99157.81;;;12.90;100.00
25722;BME280;13578;53.450;15.496;2023-07-20T02:29:02;99163.66;;;12.95;100.00
25722;BME280;13578;53.450;15.496;2023-07-20T02:32:05;99169.38;;;13.01;100.00
25722;BME280;13578;53.450;15.496;2023-07-20T02:35:06;99160.25;;;13.01;100.00
25722;BME280;13578;53.450;15.496;2023-07-20T02:38:07;99160.09;;;13.02;100.00
25722;BME280;13578;53.450;15.496;2023-07-20T02:41:08;99149.59;;;13.06;100.00
25722;BME280;13578;53.450;15.496;2023-07-20T02:44:08;99154.41;;;13.12;100.00
25722;BME280;13578;53.450;15.496;2023-07-20T02:47:09;99144.59;;;13.10;100.00
25722;BME280;13578;53.450;15.496;2023-07-20T02:50:10;99145.44;;;13.10;100.00
25722;BME280;13578;53.450;15.496;2023-07-20T02:53:13;99149.75;;;13.21;100.00
25722;BME280;13578;53.450;15.496;2023-07-20T02:56:14;99151.66;;;13.21;100.00
25722;BME280;13578;53.450;15.496;2023-07-20T02:59:15;99147.88;;;13.13;100.00
25722;BME280;13578;53.450;15.496;2023-07-20T03:02:16;99140.28;;;13.15;100.00
25722;BME280;13578;53.450;15.496;2023-07-20T03:05:17;99135.13;;;13.12;100.00
25722;BME280;13578;53.450;15.496;2023-07-20T03:08:17;99135.13;;;13.12;100.00
25722;BME280;13578;53.450;15.496;2023-07-20T03:11:19;99137.88;;;13.12;100.00
25722;BME280;13578;53.450;15.496;2023-07-20T03:14:20;99157.00;;;13.14;100.00
25722;BME280;13578;53.450;15.496;2023-07-20T03:17:20;99167.50;;;13.27;100.00
25722;BME280;13578;53.450;15.496;2023-07-20T03:20:21;99179.91;;;13.31;100.00
25722;BME280;13578;53.450;15.496;2023-07-20T03:23:21;99166.13;;;13.31;100.00
25722;BME280;13578;53.450;15.496;2023-07-20T03:26:22;99167.84;;;13.32;100.00
25722;BME280;13578;53.450;15.496;2023-07-20T03:29:23;99176.81;;;13.34;100.00
25722;BME280;13578;53.450;15.496;2023-07-20T03:32:23;99184.72;;;13.37;100.00
25722;BME280;13578;53.450;15.496;2023-07-20T03:35:24;99182.69;;;13.39;100.00
25722;BME280;13578;53.450;15.496;2023-07-20T03:38:25;99187.00;;;13.42;100.00
25722;BME280;13578;53.450;15.496;2023-07-20T03:41:26;99187.50;;;13.45;100.00
25722;BME280;13578;53.450;15.496;2023-07-20T03:44:27;99189.59;;;13.43;100.00
25722;BME280;13578;53.450;15.496;2023-07-20T03:47:28;99184.09;;;13.43;100.00
25722;BME280;13578;53.450;15.496;2023-07-20T03:50:28;99176.50;;;13.45;100.00
25722;BME280;13578;53.450;15.496;2023-07-20T03:53:29;99179.94;;;13.56;100.00
25722;BME280;13578;53.450;15.496;2023-07-20T03:56:30;99181.50;;;13.58;100.00
25722;BME280;13578;53.450;15.496;2023-07-20T03:59:37;99184.59;;;13.63;100.00
25722;BME280;13578;53.450;15.496;2023-07-20T04:02:38;99184.59;;;13.72;100.00
25722;BME280;13578;53.450;15.496;2023-07-20T04:05:39;99194.06;;;13.77;100.00
25722;BME280;13578;53.450;15.496;2023-07-20T04:08:39;99195.78;;;13.78;100.00
25722;BME280;13578;53.450;15.496;2023-07-20T04:11:40;99203.34;;;13.85;100.00
25722;BME280;13578;53.450;15.496;2023-07-20T04:14:41;99199.03;;;13.98;100.00
25722;BME280;13578;53.450;15.496;2023-07-20T04:17:42;99205.72;;;14.12;100.00
25722;BME280;13578;53.450;15.496;2023-07-20T04:20:43;99209.00;;;14.08;100.00
25722;BME280;13578;53.450;15.496;2023-07-20T04:23:44;99209.19;;;13.98;100.00
25722;BME280;13578;53.450;15.496;2023-07-20T04:26:45;99197.34;;;13.81;100.00
25722;BME280;13578;53.450;15.496;2023-07-20T04:29:45;99209.41;;;13.80;100.00
25722;BME280;13578;53.450;15.496;2023-07-20T04:32:46;99198.53;;;13.78;100.00
25722;BME280;13578;53.450;15.496;2023-07-20T04:35:53;99214.88;;;14.13;100.00
25722;BME280;13578;53.450;15.496;2023-07-20T04:38:54;99227.31;;;14.57;100.00
25722;BME280;13578;53.450;15.496;2023-07-20T04:41:54;99240.88;;;14.83;100.00
25722;BME280;13578;53.450;15.496;2023-07-20T04:44:55;99242.69;;;14.99;100.00
25722;BME280;13578;53.450;15.496;2023-07-20T04:47:55;99248.91;;;15.01;100.00
25722;BME280;13578;53.450;15.496;2023-07-20T04:50:57;99257.50;;;15.06;100.00
25722;BME280;13578;53.450;15.496;2023-07-20T04:53:58;99250.25;;;15.05;100.00
25722;BME280;13578;53.450;15.496;2023-07-20T04:56:58;99266.00;;;15.05;100.00
25722;BME280;13578;53.450;15.496;2023-07-20T04:59:59;99258.00;;;15.10;100.00
25722;BME280;13578;53.450;15.496;2023-07-20T05:03:00;99256.97;;;15.11;100.00
25722;BME280;13578;53.450;15.496;2023-07-20T05:06:00;99249.13;;;15.23;100.00
25722;BME280;13578;53.450;15.496;2023-07-20T05:09:01;99251.66;;;15.33;100.00
25722;BME280;13578;53.450;15.496;2023-07-20T05:12:01;99248.31;;;15.46;100.00
25722;BME280;13578;53.450;15.496;2023-07-20T05:15:03;99252.19;;;15.60;100.00
25722;BME280;13578;53.450;15.496;2023-07-20T05:18:04;99251.94;;;15.69;100.00
25722;BME280;13578;53.450;15.496;2023-07-20T05:21:05;99259.69;;;15.74;100.00
25722;BME280;13578;53.450;15.496;2023-07-20T05:24:06;99253.75;;;15.77;100.00
25722;BME280;13578;53.450;15.496;2023-07-20T05:27:07;99258.63;;;15.98;100.00
25722;BME280;13578;53.450;15.496;2023-07-20T05:30:11;99256.34;;;16.02;100.00
25722;BME280;13578;53.450;15.496;2023-07-20T05:33:11;99262.56;;;16.04;100.00
25722;BME280;13578;53.450;15.496;2023-07-20T05:36:12;99263.06;;;16.08;100.00
25722;BME280;13578;53.450;15.496;2023-07-20T05:39:13;99280.03;;;16.19;100.00
25722;BME280;13578;53.450;15.496;2023-07-20T05:42:13;99270.34;;;16.24;100.00
25722;BME280;13578;53.450;15.496;2023-07-20T05:45:15;99274.50;;;16.19;100.00
25722;BME280;13578;53.450;15.496;2023-07-20T05:48:15;99276.06;;;16.22;100.00
25722;BME280;13578;53.450;15.496;2023-07-20T05:51:17;99278.84;;;16.37;100.00
25722;BME280;13578;53.450;15.496;2023-07-20T05:54:17;99275.31;;;16.43;100.00
25722;BME280;13578;53.450;15.496;2023-07-20T05:57:18;99281.13;;;16.33;100.00
25722;BME280;13578;53.450;15.496;2023-07-20T06:00:19;99285.16;;;16.46;100.00
25722;BME280;13578;53.450;15.496;2023-07-20T06:03:26;99269.91;;;16.50;100.00
25722;BME280;13578;53.450;15.496;2023-07-20T06:06:27;99280.53;;;16.23;100.00
25722;BME280;13578;53.450;15.496;2023-07-20T06:09:27;99281.69;;;16.14;100.00
25722;BME280;13578;53.450;15.496;2023-07-20T06:12:29;99273.44;;;16.06;100.00
25722;BME280;13578;53.450;15.496;2023-07-20T06:15:33;99288.69;;;16.01;100.00
25722;BME280;13578;53.450;15.496;2023-07-20T06:18:35;99283.97;;;16.10;100.00
25722;BME280;13578;53.450;15.496;2023-07-20T06:21:36;99282.78;;;16.43;100.00
25722;BME280;13578;53.450;15.496;2023-07-20T06:24:36;99289.59;;;16.70;100.00
25722;BME280;13578;53.450;15.496;2023-07-20T06:27:37;99297.81;;;16.93;100.00
25722;BME280;13578;53.450;15.496;2023-07-20T06:30:38;99297.16;;;17.06;100.00
25722;BME280;13578;53.450;15.496;2023-07-20T06:33:38;99301.13;;;17.04;100.00
25722;BME280;13578;53.450;15.496;2023-07-20T06:36:39;99285.59;;;17.03;100.00
25722;BME280;13578;53.450;15.496;2023-07-20T06:39:40;99293.59;;;16.97;100.00
25722;BME280;13578;53.450;15.496;2023-07-20T06:42:40;99297.25;;;16.98;100.00
25722;BME280;13578;53.450;15.496;2023-07-20T06:45:41;99282.47;;;17.27;100.00
25722;BME280;13578;53.450;15.496;2023-07-20T06:48:42;99288.47;;;17.31;100.00
25722;BME280;13578;53.450;15.496;2023-07-20T06:51:43;99293.50;;;17.06;100.00
25722;BME280;13578;53.450;15.496;2023-07-20T06:54:43;99285.56;;;17.18;100.00
25722;BME280;13578;53.450;15.496;2023-07-20T06:57:44;99290.28;;;17.39;100.00
25722;BME280;13578;53.450;15.496;2023-07-20T07:00:45;99294.03;;;17.31;100.00
25722;BME280;13578;53.450;15.496;2023-07-20T07:03:45;99288.63;;;17.44;100.00
25722;BME280;13578;53.450;15.496;2023-07-20T07:06:46;99291.38;;;17.59;100.00
25722;BME280;13578;53.450;15.496;2023-07-20T07:09:46;99290.72;;;17.79;100.00
25722;BME280;13578;53.450;15.496;2023-07-20T07:12:47;99291.00;;;17.84;100.00
25722;BME280;13578;53.450;15.496;2023-07-20T07:15:48;99294.31;;;18.16;100.00
25722;BME280;13578;53.450;15.496;2023-07-20T07:18:50;99284.97;;;18.52;100.00
25722;BME280;13578;53.450;15.496;2023-07-20T07:21:51;99299.00;;;18.44;100.00
25722;BME280;13578;53.450;15.496;2023-07-20T07:24:51;99276.34;;;17.90;100.00
25722;BME280;13578;53.450;15.496;2023-07-20T07:27:53;99295.31;;;17.50;100.00
25722;BME280;13578;53.450;15.496;2023-07-20T07:30:55;99297.38;;;17.26;100.00
25722;BME280;13578;53.450;15.496;2023-07-20T07:33:56;99303.53;;;17.07;100.00
25722;BME280;13578;53.450;15.496;2023-07-20T07:36:57;99295.69;;;17.25;100.00
25722;BME280;13578;53.450;15.496;2023-07-20T07:39:57;99285.16;;;17.79;100.00
25722;BME280;13578;53.450;15.496;2023-07-20T07:42:58;99276.88;;;18.01;100.00
25722;BME280;13578;53.450;15.496;2023-07-20T07:45:58;99288.03;;;17.86;100.00
25722;BME280;13578;53.450;15.496;2023-07-20T07:48:59;99297.88;;;17.67;100.00
25722;BME280;13578;53.450;15.496;2023-07-20T07:51:59;99291.97;;;17.55;100.00
25722;BME280;13578;53.450;15.496;2023-07-20T07:55:02;99291.25;;;17.46;100.00
25722;BME280;13578;53.450;15.496;2023-07-20T07:58:04;99303.00;;;17.70;100.00
25722;BME280;13578;53.450;15.496;2023-07-20T08:01:04;99291.59;;;17.80;100.00
25722;BME280;13578;53.450;15.496;2023-07-20T08:04:05;99295.31;;;18.08;100.00
25722;BME280;13578;53.450;15.496;2023-07-20T08:07:06;99291.84;;;18.56;100.00
25722;BME280;13578;53.450;15.496;2023-07-20T08:10:07;99281.28;;;18.80;100.00
25722;BME280;13578;53.450;15.496;2023-07-20T08:13:08;99289.84;;;19.07;100.00
25722;BME280;13578;53.450;15.496;2023-07-20T08:16:09;99281.28;;;18.80;100.00
25722;BME280;13578;53.450;15.496;2023-07-20T08:19:10;99271.09;;;19.23;100.00
25722;BME280;13578;53.450;15.496;2023-07-20T08:22:10;99282.03;;;19.31;100.00
25722;BME280;13578;53.450;15.496;2023-07-20T08:25:12;99275.53;;;19.17;100.00
25722;BME280;13578;53.450;15.496;2023-07-20T08:28:17;99276.63;;;18.81;100.00
25722;BME280;13578;53.450;15.496;2023-07-20T08:31:18;99290.72;;;18.79;100.00
25722;BME280;13578;53.450;15.496;2023-07-20T08:34:19;99288.28;;;18.98;100.00
25722;BME280;13578;53.450;15.496;2023-07-20T08:37:19;99290.97;;;18.84;100.00
25722;BME280;13578;53.450;15.496;2023-07-20T08:40:20;99293.44;;;18.72;100.00
25722;BME280;13578;53.450;15.496;2023-07-20T08:43:23;99282.50;;;18.64;100.00
25722;BME280;13578;53.450;15.496;2023-07-20T08:46:27;99300.88;;;18.65;100.00
25722;BME280;13578;53.450;15.496;2023-07-20T08:49:31;99290.13;;;18.55;100.00
25722;BME280;13578;53.450;15.496;2023-07-20T08:52:34;99301.84;;;18.79;100.00
25722;BME280;13578;53.450;15.496;2023-07-20T08:55:35;99309.16;;;18.87;100.00
25722;BME280;13578;53.450;15.496;2023-07-20T08:58:37;99315.75;;;18.79;100.00
25722;BME280;13578;53.450;15.496;2023-07-20T09:01:40;99307.03;;;18.89;100.00
25722;BME280;13578;53.450;15.496;2023-07-20T09:04:40;99304.63;;;19.21;100.00
25722;BME280;13578;53.450;15.496;2023-07-20T09:07:41;99313.13;;;19.06;100.00
25722;BME280;13578;53.450;15.496;2023-07-20T09:10:42;99318.31;;;18.87;100.00
25722;BME280;13578;53.450;15.496;2023-07-20T09:13:42;99308.97;;;18.60;100.00
25722;BME280;13578;53.450;15.496;2023-07-20T09:16:53;99314.03;;;18.50;100.00
25722;BME280;13578;53.450;15.496;2023-07-20T09:19:54;99314.47;;;18.53;100.00
25722;BME280;13578;53.450;15.496;2023-07-20T09:22:56;99309.34;;;18.85;100.00
25722;BME280;13578;53.450;15.496;2023-07-20T09:25:57;99309.41;;;19.34;100.00
25722;BME280;13578;53.450;15.496;2023-07-20T09:28:58;99307.16;;;19.58;100.00
25722;BME280;13578;53.450;15.496;2023-07-20T09:32:04;99293.91;;;19.60;100.00
25722;BME280;13578;53.450;15.496;2023-07-20T09:35:05;99319.16;;;19.65;100.00
25722;BME280;13578;53.450;15.496;2023-07-20T09:38:05;99306.53;;;19.62;100.00
25722;BME280;13578;53.450;15.496;2023-07-20T09:41:06;99317.63;;;19.56;100.00
25722;BME280;13578;53.450;15.496;2023-07-20T09:44:07;99295.81;;;19.59;100.00
25722;BME280;13578;53.450;15.496;2023-07-20T09:47:10;99320.19;;;19.50;100.00
25722;BME280;13578;53.450;15.496;2023-07-20T09:50:11;99320.38;;;19.42;100.00
25722;BME280;13578;53.450;15.496;2023-07-20T09:53:12;99315.38;;;19.24;100.00
25722;BME280;13578;53.450;15.496;2023-07-20T09:56:16;99301.59;;;19.09;100.00
25722;BME280;13578;53.450;15.496;2023-07-20T09:59:19;99316.31;;;19.03;100.00
25722;BME280;13578;53.450;15.496;2023-07-20T10:02:32;99317.59;;;19.00;100.00
25722;BME280;13578;53.450;15.496;2023-07-20T10:05:35;99330.88;;;19.05;100.00
25722;BME280;13578;53.450;15.496;2023-07-20T10:08:39;99309.22;;;18.94;100.00
25722;BME280;13578;53.450;15.496;2023-07-20T10:11:49;99313.19;;;18.84;100.00
25722;BME280;13578;53.450;15.496;2023-07-20T10:15:14;99312.84;;;18.94;100.00
25722;BME280;13578;53.450;15.496;2023-07-20T10:22:14;99315.88;;;19.41;100.00
25722;BME280;13578;53.450;15.496;2023-07-20T10:25:18;99314.09;;;19.27;100.00
25722;BME280;13578;53.450;15.496;2023-07-20T10:28:20;99310.91;;;19.30;100.00
25722;BME280;13578;53.450;15.496;2023-07-20T10:31:24;99298.03;;;19.22;100.00
25722;BME280;13578;53.450;15.496;2023-07-20T10:34:25;99304.97;;;18.98;100.00
25722;BME280;13578;53.450;15.496;2023-07-20T10:37:54;99325.09;;;19.00;100.00
25722;BME280;13578;53.450;15.496;2023-07-20T10:40:55;99320.41;;;19.07;100.00
25722;BME280;13578;53.450;15.496;2023-07-20T10:44:04;99318.09;;;19.11;100.00
25722;BME280;13578;53.450;15.496;2023-07-20T10:47:09;99328.50;;;19.02;100.00
25722;BME280;13578;53.450;15.496;2023-07-20T10:50:12;99324.72;;;19.10;100.00
25722;BME280;13578;53.450;15.496;2023-07-20T10:53:14;99325.97;;;19.07;100.00
25722;BME280;13578;53.450;15.496;2023-07-20T10:56:21;99325.31;;;18.77;100.00
25722;BME280;13578;53.450;15.496;2023-07-20T11:02:25;99337.66;;;18.39;100.00
25722;BME280;13578;53.450;15.496;2023-07-20T11:05:38;99339.34;;;18.62;100.00
25722;BME280;13578;53.450;15.496;2023-07-20T11:08:43;99335.44;;;18.84;100.00
25722;BME280;13578;53.450;15.496;2023-07-20T11:11:46;99340.09;;;19.61;100.00
25722;BME280;13578;53.450;15.496;2023-07-20T11:14:53;99323.53;;;19.39;100.00
25722;BME280;13578;53.450;15.496;2023-07-20T11:18:11;99318.25;;;18.74;100.00
25722;BME280;13578;53.450;15.496;2023-07-20T11:21:14;99348.06;;;18.58;100.00
25722;BME280;13578;53.450;15.496;2023-07-20T11:24:16;99351.31;;;18.12;100.00
25722;BME280;13578;53.450;15.496;2023-07-20T11:27:17;99355.53;;;17.71;100.00
25722;BME280;13578;53.450;15.496;2023-07-20T11:30:22;99373.78;;;17.81;100.00
25722;BME280;13578;53.450;15.496;2023-07-20T11:33:23;99362.84;;;17.94;100.00
25722;BME280;13578;53.450;15.496;2023-07-20T11:36:23;99352.88;;;18.00;100.00
25722;BME280;13578;53.450;15.496;2023-07-20T11:39:25;99357.25;;;18.31;100.00
25722;BME280;13578;53.450;15.496;2023-07-20T11:42:26;99366.75;;;18.71;100.00
25722;BME280;13578;53.450;15.496;2023-07-20T11:45:28;99341.22;;;18.89;100.00
25722;BME280;13578;53.450;15.496;2023-07-20T11:48:33;99348.75;;;19.24;100.00
25722;BME280;13578;53.450;15.496;2023-07-20T11:51:34;99363.19;;;19.48;100.00
25722;BME280;13578;53.450;15.496;2023-07-20T11:54:38;99352.13;;;19.68;100.00
25722;BME280;13578;53.450;15.496;2023-07-20T11:57:39;99347.44;;;19.75;100.00
25722;BME280;13578;53.450;15.496;2023-07-20T12:00:44;99346.88;;;19.87;100.00
25722;BME280;13578;53.450;15.496;2023-07-20T12:03:44;99337.41;;;19.74;100.00
25722;BME280;13578;53.450;15.496;2023-07-20T12:06:45;99341.66;;;19.63;100.00
25722;BME280;13578;53.450;15.496;2023-07-20T12:10:05;99339.00;;;19.42;100.00
25722;BME280;13578;53.450;15.496;2023-07-20T12:13:06;99354.97;;;18.69;100.00
25722;BME280;13578;53.450;15.496;2023-07-20T12:16:12;99385.94;;;17.13;100.00
25722;BME280;13578;53.450;15.496;2023-07-20T12:19:15;99355.91;;;16.48;100.00
25722;BME280;13578;53.450;15.496;2023-07-20T12:22:16;99363.84;;;16.37;100.00
25722;BME280;13578;53.450;15.496;2023-07-20T12:25:16;99360.75;;;16.31;100.00
25722;BME280;13578;53.450;15.496;2023-07-20T12:28:20;99366.94;;;16.18;100.00
25722;BME280;13578;53.450;15.496;2023-07-20T12:31:21;99356.41;;;16.14;100.00
25722;BME280;13578;53.450;15.496;2023-07-20T12:34:23;99340.81;;;16.36;100.00
25722;BME280;13578;53.450;15.496;2023-07-20T12:37:23;99344.50;;;16.81;100.00
25722;BME280;13578;53.450;15.496;2023-07-20T12:40:24;99323.09;;;17.35;100.00
25722;BME280;13578;53.450;15.496;2023-07-20T12:43:25;99330.38;;;17.73;100.00
25722;BME280;13578;53.450;15.496;2023-07-20T12:46:26;99354.63;;;17.86;100.00
25722;BME280;13578;53.450;15.496;2023-07-20T12:49:29;99353.63;;;17.93;100.00
25722;BME280;13578;53.450;15.496;2023-07-20T12:52:30;99352.81;;;17.78;100.00
25722;BME280;13578;53.450;15.496;2023-07-20T12:55:31;99361.44;;;17.83;100.00
25722;BME280;13578;53.450;15.496;2023-07-20T12:58:31;99360.28;;;18.14;100.00
25722;BME280;13578;53.450;15.496;2023-07-20T13:01:32;99347.19;;;18.30;100.00
25722;BME280;13578;53.450;15.496;2023-07-20T13:04:33;99360.25;;;18.57;100.00
25722;BME280;13578;53.450;15.496;2023-07-20T13:07:35;99347.59;;;18.83;100.00
25722;BME280;13578;53.450;15.496;2023-07-20T13:10:37;99340.00;;;18.92;100.00
25722;BME280;13578;53.450;15.496;2023-07-20T13:13:38;99332.97;;;18.68;100.00
25722;BME280;13578;53.450;15.496;2023-07-20T13:16:39;99335.69;;;18.33;100.00
25722;BME280;13578;53.450;15.496;2023-07-20T13:19:40;99338.41;;;18.04;100.00
25722;BME280;13578;53.450;15.496;2023-07-20T13:22:40;99337.41;;;17.90;100.00
25722;BME280;13578;53.450;15.496;2023-07-20T13:25:41;99347.81;;;17.88;100.00
25722;BME280;13578;53.450;15.496;2023-07-20T13:28:42;99343.91;;;17.98;100.00
25722;BME280;13578;53.450;15.496;2023-07-20T13:31:43;99343.56;;;18.07;100.00
25722;BME280;13578;53.450;15.496;2023-07-20T13:34:44;99350.56;;;18.25;100.00
25722;BME280;13578;53.450;15.496;2023-07-20T13:37:49;99350.97;;;18.72;100.00
25722;BME280;13578;53.450;15.496;2023-07-20T13:40:50;99347.91;;;19.24;100.00
25722;BME280;13578;53.450;15.496;2023-07-20T13:43:51;99350.19;;;19.62;100.00
25722;BME280;13578;53.450;15.496;2023-07-20T13:46:51;99324.97;;;19.77;100.00
25722;BME280;13578;53.450;15.496;2023-07-20T13:49:52;99301.44;;;19.79;100.00
25722;BME280;13578;53.450;15.496;2023-07-20T13:52:52;99316.34;;;19.58;100.00
25722;BME280;13578;53.450;15.496;2023-07-20T13:55:53;99323.88;;;19.71;100.00
25722;BME280;13578;53.450;15.496;2023-07-20T13:58:54;99302.91;;;19.68;100.00
25722;BME280;13578;53.450;15.496;2023-07-20T14:01:54;99303.34;;;19.72;100.00
25722;BME280;13578;53.450;15.496;2023-07-20T14:04:55;99307.50;;;19.90;100.00
25722;BME280;13578;53.450;15.496;2023-07-20T14:07:56;99269.38;;;19.97;100.00
25722;BME280;13578;53.450;15.496;2023-07-20T14:10:56;99273.84;;;19.98;100.00
25722;BME280;13578;53.450;15.496;2023-07-20T14:13:57;99278.00;;;19.47;100.00
25722;BME280;13578;53.450;15.496;2023-07-20T14:16:58;99301.31;;;19.46;100.00
25722;BME280;13578;53.450;15.496;2023-07-20T14:19:59;99292.50;;;19.29;100.00
25722;BME280;13578;53.450;15.496;2023-07-20T14:22:59;99300.84;;;19.29;100.00
25722;BME280;13578;53.450;15.496;2023-07-20T14:26:00;99300.13;;;19.68;100.00
25722;BME280;13578;53.450;15.496;2023-07-20T14:29:01;99295.50;;;20.09;100.00
25722;BME280;13578;53.450;15.496;2023-07-20T14:32:02;99285.88;;;20.19;100.00
25722;BME280;13578;53.450;15.496;2023-07-20T14:35:04;99260.38;;;20.08;100.00
25722;BME280;13578;53.450;15.496;2023-07-20T14:38:05;99292.50;;;20.11;100.00
25722;BME280;13578;53.450;15.496;2023-07-20T14:41:05;99282.97;;;19.72;100.00
25722;BME280;13578;53.450;15.496;2023-07-20T14:44:06;99268.78;;;19.46;100.00
25722;BME280;13578;53.450;15.496;2023-07-20T14:47:07;99280.75;;;19.33;100.00
25722;BME280;13578;53.450;15.496;2023-07-20T14:50:08;99295.72;;;19.39;100.00
25722;BME280;13578;53.450;15.496;2023-07-20T14:53:08;99282.31;;;19.63;100.00
25722;BME280;13578;53.450;15.496;2023-07-20T14:56:09;99309.00;;;20.33;100.00
25722;BME280;13578;53.450;15.496;2023-07-20T14:59:10;99283.91;;;20.79;100.00
25722;BME280;13578;53.450;15.496;2023-07-20T15:02:11;99258.81;;;20.66;94.93
25722;BME280;13578;53.450;15.496;2023-07-20T15:05:11;99259.72;;;20.20;93.47
25722;BME280;13578;53.450;15.496;2023-07-20T15:08:12;99264.66;;;20.11;96.09
25722;BME280;13578;53.450;15.496;2023-07-20T15:11:12;99273.03;;;20.04;94.27
25722;BME280;13578;53.450;15.496;2023-07-20T15:14:13;99274.50;;;20.00;96.23
25722;BME280;13578;53.450;15.496;2023-07-20T15:17:14;99267.59;;;19.82;92.53
25722;BME280;13578;53.450;15.496;2023-07-20T15:20:15;99261.16;;;19.75;92.17
25722;BME280;13578;53.450;15.496;2023-07-20T15:23:16;99261.78;;;19.64;93.55
25722;BME280;13578;53.450;15.496;2023-07-20T15:26:16;99274.63;;;19.65;94.93
25722;BME280;13578;53.450;15.496;2023-07-20T15:29:17;99286.00;;;19.83;95.20
25722;BME280;13578;53.450;15.496;2023-07-20T15:32:18;99267.19;;;19.86;91.20
25722;BME280;13578;53.450;15.496;2023-07-20T15:35:18;99274.25;;;19.88;91.26
25722;BME280;13578;53.450;15.496;2023-07-20T15:38:19;99273.63;;;20.20;90.44
25722;BME280;13578;53.450;15.496;2023-07-20T15:41:20;99277.06;;;20.55;88.97
25722;BME280;13578;53.450;15.496;2023-07-20T15:44:21;99263.75;;;20.64;86.77
25722;BME280;13578;53.450;15.496;2023-07-20T15:47:21;99268.91;;;20.54;89.49
25722;BME280;13578;53.450;15.496;2023-07-20T15:50:22;99278.09;;;20.68;93.33
25722;BME280;13578;53.450;15.496;2023-07-20T15:53:23;99236.97;;;20.56;80.06